Terminal Aerodrome Forecast
Issued by NWS Cleveland, OH

Home | Current Version | Previous Version | Graphics & Text | Print | Product List | Glossary On
Versions: 1 2 3 4 5 6 7 8 9 10 11 12 13 14 15 16 17
000
FTUS41 KCLE 201720
TAFYNG
TAF
KYNG 201720Z 2018/2118 25009KT P6SM VCTS BKN040CB OVC200
      TEMPO 2018/2020 VRB25G35KT 2SM -TSRA OVC025CB
     FM202100 24011KT P6SM BKN035
     FM210800 27005KT 4SM BR BKN020
     FM211500 01008KT P6SM BKN035=

USA.gov is the U.S. government's official web portal to all federal, state and local government web resources and services.